Time;durP1;ratioP1;P1;durP2;ratioP2;P2;SDS_P1;SDS_P2;PMS_P1;PMS_P2;Temp;Humidity;BMP_temperature;BMP_pressure;BME280_temperature;BME280_humidity;BME280_pressure;Samples;Min_cycle;Max_cycle;Signal;HPM_P1;HPM_P2
2023/12/26 00:00:49;;;;;;;22.30;14.30;;;10.20;99.90;;;;;;4934475;29;20456;-53
2023/12/26 00:03:15;;;;;;;22.13;14.52;;;10.20;99.90;;;;;;4947976;29;20670;-53
2023/12/26 00:05:41;;;;;;;25.88;15.65;;;10.20;99.90;;;;;;4951914;29;20035;-52
2023/12/26 00:08:07;;;;;;;29.73;21.63;;;10.30;99.90;;;;;;4954127;29;20024;-52
2023/12/26 00:10:34;;;;;;;35.13;24.63;;;10.20;99.90;;;;;;4953667;29;20435;-53
2023/12/26 00:13:01;;;;;;;51.08;31.77;;;10.20;99.90;;;;;;4951552;29;20069;-54
2023/12/26 00:15:27;;;;;;;25.70;15.07;;;10.00;99.90;;;;;;4954301;29;20027;-54
2023/12/26 00:17:53;;;;;;;27.88;18.02;;;9.90;99.90;;;;;;4954405;29;20031;-54
2023/12/26 00:20:19;;;;;;;32.47;20.90;;;9.80;99.90;;;;;;4954539;29;20026;-53
2023/12/26 00:22:45;;;;;;;31.02;23.02;;;9.80;99.90;;;;;;4954313;29;20027;-53
2023/12/26 00:25:11;;;;;;;41.92;30.00;;;9.90;99.90;;;;;;4954401;29;20418;-52
2023/12/26 00:27:39;;;;;;;53.53;36.80;;;9.90;99.90;;;;;;4954130;29;20027;-54
2023/12/26 00:30:06;;;;;;;42.40;28.45;;;10.10;99.90;;;;;;4954085;29;20668;-53
2023/12/26 00:32:32;;;;;;;33.83;22.60;;;10.20;99.90;;;;;;4920493;29;20043;-53
2023/12/26 00:34:58;;;;;;;27.45;16.67;;;10.30;99.90;;;;;;4920124;29;20043;-54
2023/12/26 00:37:24;;;;;;;43.33;28.15;;;10.30;99.90;;;;;;4953964;29;20086;-55
2023/12/26 00:39:50;;;;;;;41.10;26.67;;;10.20;99.90;;;;;;4953991;29;20509;-54
2023/12/26 00:42:15;;;;;;;40.85;29.83;;;10.30;99.90;;;;;;4954193;29;20027;-53
2023/12/26 00:44:41;;;;;;;36.67;23.60;;;10.30;99.90;;;;;;4953919;29;20534;-53
2023/12/26 00:47:07;;;;;;;25.25;15.13;;;10.30;99.90;;;;;;4954047;29;20086;-54
2023/12/26 00:49:33;;;;;;;25.35;14.48;;;;;;;;;;4888460;29;20063;-52
2023/12/26 00:51:59;;;;;;;21.50;14.40;;;;;;;;;;4919980;29;20081;-53
2023/12/26 00:54:25;;;;;;;27.50;16.23;;;10.40;99.90;;;;;;4951931;29;20562;-53
2023/12/26 00:56:50;;;;;;;42.90;28.67;;;10.50;99.90;;;;;;4953928;29;20110;-52
2023/12/26 00:59:16;;;;;;;36.15;22.35;;;10.40;99.90;;;;;;4952004;29;20442;-51
2023/12/26 01:01:42;;;;;;;31.67;21.58;;;10.20;99.90;;;;;;4953622;29;20415;-53
2023/12/26 01:04:08;;;;;;;32.40;21.15;;;10.00;99.90;;;;;;4954368;29;20035;-53
2023/12/26 01:06:35;;;;;;;32.28;20.40;;;9.80;99.90;;;;;;4935744;29;20521;-53
2023/12/26 01:09:00;;;;;;;31.52;17.50;;;9.50;99.90;;;;;;4953898;29;20027;-52
2023/12/26 01:11:26;;;;;;;33.40;16.65;;;9.30;99.90;;;;;;4954065;28;20031;-53
2023/12/26 01:13:52;;;;;;;22.40;14.45;;;9.30;99.90;;;;;;4955478;29;20043;-53
2023/12/26 01:16:19;;;;;;;22.08;13.95;;;9.20;99.90;;;;;;4957730;29;20479;-51
2023/12/26 01:18:46;;;;;;;30.65;14.95;;;;;;;;;;4955696;29;20039;-54
2023/12/26 01:21:11;;;;;;;22.58;14.82;;;8.90;99.90;;;;;;4958254;29;20031;-51
2023/12/26 01:23:37;;;;;;;23.75;13.10;;;8.80;99.90;;;;;;4957437;29;20499;-54
2023/12/26 01:26:03;;;;;;;20.50;12.35;;;8.90;99.90;;;;;;4957616;29;20086;-54
2023/12/26 01:28:29;;;;;;;22.02;13.00;;;9.10;99.90;;;;;;4957607;29;20054;-52
2023/12/26 01:30:55;;;;;;;21.90;13.48;;;9.10;99.90;;;;;;4957545;29;20039;-52
2023/12/26 01:33:20;;;;;;;23.45;12.82;;;9.30;99.90;;;;;;4923800;29;20118;-54
2023/12/26 01:35:48;;;;;;;21.48;14.52;;;9.30;99.90;;;;;;4955312;29;20039;-51
2023/12/26 01:38:13;;;;;;;24.65;13.10;;;8.90;99.90;;;;;;4923864;29;20044;-52
2023/12/26 01:40:40;;;;;;;24.10;13.95;;;8.20;99.90;;;;;;4957399;29;20023;-52
2023/12/26 01:43:07;;;;;;;19.58;12.30;;;8.20;99.90;;;;;;4957517;29;20423;-53
2023/12/26 01:45:33;;;;;;;18.35;10.30;;;8.10;99.90;;;;;;4955222;29;20054;-52
2023/12/26 01:48:00;;;;;;;15.85;8.43;;;;;;;;;;4957077;29;20043;-54
2023/12/26 01:50:26;;;;;;;20.60;10.35;;;;;;;;;;4955154;29;20047;-51
2023/12/26 01:52:53;;;;;;;38.25;20.15;;;;;;;;;;4957067;29;20123;-53
2023/12/26 01:55:19;;;;;;;29.02;17.70;;;;;;;;;;4957358;29;20027;-51
2023/12/26 01:57:46;;;;;;;28.77;17.50;;;;;;;;;;4954874;29;20074;-53
2023/12/26 02:00:12;;;;;;;14.68;8.13;;;8.60;99.90;;;;;;4957225;29;20039;-52
2023/12/26 02:02:39;;;;;;;14.85;8.10;;;8.50;99.90;;;;;;4957087;29;20499;-53
2023/12/26 02:05:05;;;;;;;16.58;9.25;;;8.20;99.90;;;;;;4956896;29;20041;-54
2023/12/26 02:07:31;;;;;;;15.38;8.48;;;8.00;99.90;;;;;;4956939;29;20031;-54
2023/12/26 02:09:59;;;;;;;14.88;7.80;;;7.50;99.90;;;;;;4954631;29;20043;-52
2023/12/26 02:12:24;;;;;;;14.82;8.60;;;7.20;99.90;;;;;;4957619;29;20039;-51
2023/12/26 02:14:50;;;;;;;14.23;7.47;;;7.20;99.90;;;;;;4955492;29;20058;-52
2023/12/26 02:17:22;;;;;;;16.15;9.13;;;7.30;99.90;;;;;;4955072;29;20043;-52
2023/12/26 02:19:48;;;;;;;25.27;11.07;;;7.40;99.90;;;;;;4957171;29;20031;-53
2023/12/26 02:22:13;;;;;;;34.17;18.33;;;7.70;99.90;;;;;;4923386;29;20064;-53
2023/12/26 02:24:47;;;;;;;21.27;12.57;;;8.00;99.90;;;;;;4940025;29;20062;-53
2023/12/26 02:27:20;;;;;;;25.65;13.70;;;8.20;99.90;;;;;;4925512;29;20035;-52
2023/12/26 02:29:50;;;;;;;24.38;12.65;;;8.60;99.90;;;;;;4956965;29;20414;-53
2023/12/26 02:32:21;;;;;;;27.70;16.48;;;8.70;99.90;;;;;;4956866;29;20407;-52
2023/12/26 02:34:50;;;;;;;34.28;21.80;;;8.80;99.90;;;;;;4957143;29;20028;-52
2023/12/26 02:37:16;;;;;;;32.90;16.42;;;9.00;99.90;;;;;;4956983;29;20476;-53
2023/12/26 02:39:43;;;;;;;18.55;10.15;;;8.30;99.90;;;;;;4956866;29;20038;-54
2023/12/26 02:42:11;;;;;;;14.07;7.57;;;8.10;99.90;;;;;;4957104;29;20039;-52
2023/12/26 02:44:38;;;;;;;15.57;8.50;;;7.80;99.90;;;;;;4956680;29;20042;-53
2023/12/26 02:47:03;;;;;;;16.48;8.95;;;7.80;99.90;;;;;;4956249;29;20103;-53
2023/12/26 02:49:29;;;;;;;14.45;8.02;;;7.70;99.90;;;;;;4956256;29;20126;-52
2023/12/26 02:51:55;;;;;;;18.63;8.95;;;7.80;99.90;;;;;;4938017;29;20530;-52
2023/12/26 02:54:21;;;;;;;17.70;8.07;;;7.80;99.90;;;;;;4938133;29;20032;-52
2023/12/26 02:56:46;;;;;;;11.90;7.85;;;7.80;99.90;;;;;;4955969;29;20099;-52
2023/12/26 02:59:12;;;;;;;11.02;6.88;;;7.60;99.90;;;;;;4955868;29;20090;-52
2023/12/26 03:01:38;;;;;;;16.63;8.30;;;7.60;99.90;;;;;;4956002;29;20436;-54
2023/12/26 03:04:03;;;;;;;12.63;7.72;;;7.70;99.90;;;;;;4955808;29;20034;-52
2023/12/26 03:06:29;;;;;;;13.02;6.82;;;7.80;99.90;;;;;;4956233;29;20348;-51
2023/12/26 03:08:55;;;;;;;12.55;5.90;;;8.10;99.90;;;;;;4955724;29;20031;-51
2023/12/26 03:11:21;;;;;;;15.68;7.43;;;8.20;99.90;;;;;;4937766;29;20435;-52
2023/12/26 03:13:46;;;;;;;13.90;8.90;;;8.20;99.90;;;;;;4955751;29;20031;-52
2023/12/26 03:16:12;;;;;;;13.65;8.40;;;8.00;99.90;;;;;;4955590;29;20114;-54
2023/12/26 03:18:38;;;;;;;14.20;8.65;;;7.70;99.90;;;;;;4955665;29;20033;-52
2023/12/26 03:21:04;;;;;;;14.73;9.13;;;7.60;99.90;;;;;;4937537;29;20892;-52
2023/12/26 03:23:29;;;;;;;14.93;8.20;;;7.60;99.90;;;;;;4937501;29;20185;-50
2023/12/26 03:25:55;;;;;;;13.80;7.75;;;7.60;99.90;;;;;;4937501;29;20063;-51
2023/12/26 03:28:21;;;;;;;14.88;8.02;;;7.70;99.90;;;;;;4937339;29;20035;-52
2023/12/26 03:30:47;;;;;;;11.23;5.43;;;7.60;99.90;;;;;;4937328;29;20070;-53
2023/12/26 03:33:12;;;;;;;12.52;7.03;;;7.50;99.90;;;;;;4955538;29;20157;-52
2023/12/26 03:35:38;;;;;;;13.38;6.53;;;7.50;99.90;;;;;;4954980;28;20027;-53
2023/12/26 03:38:05;;;;;;;13.73;6.68;;;7.50;99.90;;;;;;4955219;29;20039;-53
2023/12/26 03:40:31;;;;;;;12.52;7.43;;;7.50;99.90;;;;;;4955507;29;20035;-51
2023/12/26 03:42:56;;;;;;;12.82;6.53;;;7.60;99.90;;;;;;4937019;29;20395;-52
2023/12/26 03:45:26;;;;;;;13.18;6.90;;;7.70;99.90;;;;;;4937048;29;20072;-53
2023/12/26 03:47:52;;;;;;;11.95;5.68;;;7.70;99.90;;;;;;4938202;29;20048;-54
2023/12/26 03:50:19;;;;;;;11.65;6.38;;;7.70;99.90;;;;;;4953443;29;20450;-53
2023/12/26 03:52:45;;;;;;;12.00;7.40;;;7.70;99.90;;;;;;4905905;29;20134;-52
2023/12/26 03:55:12;;;;;;;15.13;7.00;;;7.50;99.90;;;;;;4889405;29;20123;-52
2023/12/26 03:57:39;;;;;;;10.48;6.78;;;7.40;99.90;;;;;;4954758;29;20059;-52
2023/12/26 04:00:06;;;;;;;14.00;6.88;;;7.40;99.90;;;;;;4955055;29;20031;-53
2023/12/26 04:02:32;;;;;;;9.93;6.70;;;7.50;99.90;;;;;;4905148;29;20074;-53
2023/12/26 04:04:58;;;;;;;18.77;7.40;;;7.30;99.90;;;;;;4954964;29;20039;-51
2023/12/26 04:07:24;;;;;;;12.68;6.57;;;7.10;99.90;;;;;;4954935;29;20082;-52
2023/12/26 04:09:49;;;;;;;15.18;7.03;;;7.40;99.90;;;;;;4955999;29;20031;-52
2023/12/26 04:12:15;;;;;;;11.30;6.63;;;7.50;99.90;;;;;;4884081;29;20044;-54
2023/12/26 04:14:41;;;;;;;14.75;5.68;;;7.50;99.90;;;;;;4914979;29;20038;-52
2023/12/26 04:17:07;;;;;;;11.52;6.38;;;7.50;99.90;;;;;;4914178;29;20479;-55
2023/12/26 04:19:32;;;;;;;14.43;6.25;;;7.50;99.90;;;;;;4914102;29;20492;-53
2023/12/26 04:21:58;;;;;;;11.30;6.13;;;7.60;99.90;;;;;;4914143;29;20040;-52
2023/12/26 04:24:24;;;;;;;12.18;7.18;;;7.60;99.90;;;;;;4914025;29;20048;-53
2023/12/26 04:26:49;;;;;;;22.05;12.18;;;7.50;99.90;;;;;;4913998;29;20044;-53
2023/12/26 04:29:15;;;;;;;16.45;9.57;;;;;;;;;;4914075;29;20032;-53
2023/12/26 04:31:42;;;;;;;15.65;7.25;;;;;;;;;;4913857;29;20656;-52
2023/12/26 04:34:08;;;;;;;10.52;5.47;;;;;;;;;;4897949;29;20062;-53
2023/12/26 04:36:37;;;;;;;15.63;6.35;;;;;;;;;;4913752;29;20476;-52
2023/12/26 04:39:04;;;;;;;17.17;6.30;;;;;;;;;;4913849;29;20036;-51
2023/12/26 04:41:31;;;;;;;12.88;5.57;;;;;;;;;;4913852;29;20132;-51
2023/12/26 04:43:57;;;;;;;12.40;4.88;;;;;;;;;;4945992;29;20040;-51
2023/12/26 04:46:23;;;;;;;10.15;5.07;;;7.30;99.90;;;;;;4903002;29;20039;-52
2023/12/26 04:48:49;;;;;;;11.27;6.30;;;7.30;99.90;;;;;;4936598;29;20491;-52
2023/12/26 04:51:18;;;;;;;23.60;12.30;;;7.40;99.90;;;;;;4904179;29;20044;-53
2023/12/26 04:53:47;;;;;;;21.85;11.52;;;7.00;99.90;;;;;;4954025;29;20122;-51
2023/12/26 04:56:20;;;;;;;11.23;6.28;;;6.50;99.90;;;;;;4954283;29;20031;-52
2023/12/26 04:58:50;;;;;;;11.05;6.32;;;;;;;;;;4954163;29;20035;-52
2023/12/26 05:01:17;;;;;;;10.75;6.28;;;;;;;;;;4953641;29;20055;-52
2023/12/26 05:03:43;;;;;;;14.20;6.80;;;;;;;;;;4954060;29;20042;-54
2023/12/26 05:06:09;;;;;;;14.13;6.90;;;5.90;99.90;;;;;;4951818;29;20039;-53
2023/12/26 05:08:39;;;;;;;13.32;7.72;;;5.80;99.90;;;;;;4888460;29;20039;-52
2023/12/26 05:11:08;;;;;;;17.30;10.70;;;5.80;99.90;;;;;;4953973;29;20141;-52
2023/12/26 05:13:34;;;;;;;13.55;8.80;;;5.90;99.90;;;;;;4951677;29;20036;-53
2023/12/26 05:16:03;;;;;;;14.23;7.82;;;6.20;99.90;;;;;;4953909;29;20023;-52
2023/12/26 05:18:32;;;;;;;10.68;7.25;;;6.20;99.90;;;;;;4953901;29;20031;-54
2023/12/26 05:21:00;;;;;;;14.63;7.43;;;6.30;99.90;;;;;;4953797;29;20038;-51
2023/12/26 05:23:26;;;;;;;15.85;8.00;;;6.30;99.90;;;;;;4919995;29;20046;-52
2023/12/26 05:25:52;;;;;;;13.48;7.03;;;6.30;99.90;;;;;;4953632;29;20031;-52
2023/12/26 05:28:18;;;;;;;15.82;9.02;;;6.30;99.90;;;;;;4934640;29;20042;-51
2023/12/26 05:30:43;;;;;;;19.77;10.93;;;6.40;99.90;;;;;;4935248;29;20051;-52
2023/12/26 05:33:09;;;;;;;15.95;9.38;;;6.30;99.90;;;;;;4953688;29;20115;-52
2023/12/26 05:35:35;;;;;;;15.00;8.90;;;6.40;99.90;;;;;;4935461;29;20061;-52
2023/12/26 05:38:01;;;;;;;17.10;9.23;;;6.50;99.90;;;;;;4935594;29;20454;-52
2023/12/26 05:40:27;;;;;;;19.35;10.50;;;6.60;99.90;;;;;;4953966;29;20032;-51
2023/12/26 05:42:53;;;;;;;22.67;13.65;;;6.50;99.90;;;;;;4953454;29;20055;-53
2023/12/26 05:45:18;;;;;;;19.02;10.45;;;6.50;99.90;;;;;;4953674;29;20032;-54
2023/12/26 05:47:44;;;;;;;13.98;8.85;;;6.60;99.90;;;;;;4953739;29;20031;-53
2023/12/26 05:50:10;;;;;;;16.20;8.60;;;6.80;99.90;;;;;;4953544;29;20035;-53
2023/12/26 05:52:36;;;;;;;21.65;11.02;;;6.80;99.90;;;;;;4951561;29;20055;-53
2023/12/26 05:55:02;;;;;;;16.52;9.88;;;6.90;99.90;;;;;;4953409;29;20491;-52
2023/12/26 05:57:27;;;;;;;16.60;8.70;;;6.70;99.90;;;;;;4953731;28;20038;-52
2023/12/26 05:59:53;;;;;;;15.88;8.40;;;6.70;99.90;;;;;;4957004;29;20393;-52
2023/12/26 06:02:19;;;;;;;15.60;7.70;;;6.70;99.90;;;;;;4956672;29;20098;-53
2023/12/26 06:04:45;;;;;;;13.02;6.82;;;6.80;99.90;;;;;;4955646;29;20085;-52
2023/12/26 06:07:11;;;;;;;18.45;9.75;;;6.90;99.90;;;;;;4956081;29;20043;-53
2023/12/26 06:09:38;;;;;;;11.15;6.65;;;7.00;99.90;;;;;;4939696;29;20043;-52
2023/12/26 06:12:05;;;;;;;13.98;7.97;;;7.00;99.90;;;;;;4956582;29;20039;-51
2023/12/26 06:14:30;;;;;;;23.25;11.77;;;7.00;99.90;;;;;;4939142;29;20495;-53
2023/12/26 06:16:57;;;;;;;20.80;11.70;;;7.20;99.90;;;;;;4956718;29;20032;-52
2023/12/26 06:19:23;;;;;;;28.60;15.15;;;7.50;99.90;;;;;;4957042;29;20117;-53
2023/12/26 06:21:48;;;;;;;36.53;14.23;;;7.50;99.90;;;;;;4956480;29;20067;-53
2023/12/26 06:24:14;;;;;;;30.30;18.02;;;7.60;99.90;;;;;;4906935;29;20039;-53
2023/12/26 06:26:40;;;;;;;37.60;24.58;;;;;;;;;;4956832;29;20502;-52
2023/12/26 06:29:06;;;;;;;41.00;24.95;;;;;;;;;;4956630;29;20023;-53
2023/12/26 06:31:32;;;;;;;50.33;30.90;;;8.10;99.90;;;;;;4956482;29;20126;-52
2023/12/26 06:33:58;;;;;;;62.92;37.90;;;8.20;99.90;;;;;;4956248;29;20114;-52
2023/12/26 06:36:27;;;;;;;51.17;33.75;;;8.20;99.90;;;;;;4956478;29;20035;-52
2023/12/26 06:38:56;;;;;;;50.55;32.38;;;8.40;99.90;;;;;;4907987;29;20067;-53
2023/12/26 06:41:22;;;;;;;50.47;29.88;;;;;;;;;;4956420;29;20379;-53
2023/12/26 06:43:47;;;;;;;62.42;29.60;;;8.50;99.90;;;;;;4956279;29;20082;-52
2023/12/26 06:46:14;;;;;;;46.88;30.38;;;8.70;99.90;;;;;;4956301;29;20031;-53
2023/12/26 06:48:40;;;;;;;44.03;26.83;;;8.80;99.90;;;;;;4956270;29;20119;-51
2023/12/26 06:51:06;;;;;;;36.17;22.73;;;8.80;99.90;;;;;;4906024;29;20134;-51
2023/12/26 06:53:32;;;;;;;37.15;24.95;;;;;;;;;;4953300;29;20035;-52
2023/12/26 06:55:58;;;;;;;56.03;33.35;;;9.30;99.90;;;;;;4895766;29;20497;-51
2023/12/26 06:58:24;;;;;;;63.72;41.45;;;10.90;99.90;;;;;;4896132;29;20071;-52
2023/12/26 07:00:50;;;;;;;48.92;29.75;;;;;;;;;;4887961;29;20128;-52
2023/12/26 07:03:17;;;;;;;43.38;27.08;;;13.50;99.90;;;;;;4896040;29;20088;-53
2023/12/26 07:05:43;;;;;;;24.83;16.40;;;15.00;96.90;;;;;;4895987;29;20572;-52
2023/12/26 07:08:08;;;;;;;;;;;16.00;96.00;;;;;;4896345;29;20049;-53
2023/12/26 07:10:34;;;;;;;;;;;;;;;;;;4895365;29;20352;-53
2023/12/26 07:13:00;;;;;;;;;;;18.80;92.80;;;;;;4896242;29;19929;-53
2023/12/26 07:15:26;;;;;;;25.90;18.30;;;;;;;;;;4886815;29;20504;-52
2023/12/26 07:17:52;;;;;;;32.92;22.95;;;;;;;;;;4868361;29;20037;-52
2023/12/26 07:20:19;;;;;;;37.78;29.20;;;;;;;;;;4895557;29;20033;-54
2023/12/26 07:22:45;;;;;;;29.88;23.13;;;;;;;;;;4895638;29;20036;-54
2023/12/26 07:25:11;;;;;;;29.10;22.63;;;22.70;87.90;;;;;;4895631;29;20036;-54
2023/12/26 07:27:37;;;;;;;34.92;21.95;;;;;;;;;;4941741;29;20101;-54
2023/12/26 07:30:04;;;;;;;28.00;21.67;;;;;;;;;;4937509;29;20106;-53
2023/12/26 07:32:30;;;;;;;34.40;28.10;;;;;;;;;;4954940;29;20027;-55
2023/12/26 07:34:56;;;;;;;35.13;26.20;;;;;;;;;;4905558;29;20117;-54
2023/12/26 07:37:22;;;;;;;34.60;26.30;;;;;;;;;;4954569;29;20071;-52
2023/12/26 07:39:48;;;;;;;31.50;27.75;;;25.80;75.70;;;;;;4952540;29;20567;-52
2023/12/26 07:42:14;;;;;;;32.92;26.83;;;;;;;;;;4954577;29;20024;-54
2023/12/26 07:44:40;;;;;;;36.58;28.02;;;;;;;;;;4954593;29;20185;-54
2023/12/26 07:47:06;;;;;;;25.08;19.08;;;;;;;;;;4951701;29;20027;-52
2023/12/26 07:49:32;;;;;;;28.80;21.77;;;26.20;87.40;;;;;;4952629;29;20042;-51
2023/12/26 07:51:58;;;;;;;22.80;18.70;;;;;;;;;;4905382;29;20051;-51
2023/12/26 07:54:24;;;;;;;20.85;17.95;;;24.60;75.20;;;;;;4954792;29;20034;-52
2023/12/26 07:56:50;;;;;;;21.35;17.00;;;;;;;;;;4954810;29;20031;-52
2023/12/26 07:59:16;;;;;;;24.98;17.88;;;22.40;75.00;;;;;;4954895;29;20031;-51
2023/12/26 08:01:41;;;;;;;19.58;16.05;;;22.10;75.90;;;;;;4952391;29;20106;-51
2023/12/26 08:04:07;;;;;;;24.13;18.15;;;21.60;77.10;;;;;;4937609;29;20113;-52
2023/12/26 08:06:33;;;;;;;17.73;14.20;;;21.90;77.60;;;;;;4955119;29;20039;-53
2023/12/26 08:08:59;;;;;;;19.13;14.40;;;;;;;;;;4954811;29;20032;-52
2023/12/26 08:11:25;;;;;;;17.88;13.43;;;;;;;;;;4952505;29;20048;-51
2023/12/26 08:13:52;;;;;;;16.35;13.63;;;;;;;;;;4904977;29;20439;-52
2023/12/26 08:16:18;;;;;;;27.10;19.10;;;;;;;;;;4954179;29;20039;-52
2023/12/26 08:18:44;;;;;;;33.30;24.83;;;25.60;95.80;;;;;;4905370;29;20050;-52
2023/12/26 08:21:10;;;;;;;32.70;23.67;;;;;;;;;;4954865;28;20054;-52
2023/12/26 08:23:36;;;;;;;29.65;21.48;;;27.70;99.30;;;;;;4954430;29;20118;-52
2023/12/26 08:26:11;;;;;;;30.65;23.27;;;;;;;;;;4904865;29;20123;-52
2023/12/26 08:28:37;;;;;;;31.88;23.52;;;28.80;97.20;;;;;;4954382;29;20031;-52
2023/12/26 08:31:03;;;;;;;32.97;24.17;;;;;;;;;;4920313;29;20043;-52
2023/12/26 08:33:35;;;;;;;37.03;27.48;;;;;;;;;;4920516;29;20043;-52
2023/12/26 08:36:01;;;;;;;36.80;26.52;;;30.40;92.10;;;;;;4954164;29;20035;-52
2023/12/26 08:38:28;;;;;;;34.92;27.58;;;;;;;;;;4953073;29;20035;-53
2023/12/26 08:40:54;;;;;;;34.75;27.48;;;30.90;84.10;;;;;;4953516;29;20387;-52
2023/12/26 08:43:20;;;;;;;35.75;26.58;;;30.80;69.10;;;;;;4953751;29;20023;-54
2023/12/26 08:45:56;;;;;;;36.38;28.23;;;31.30;69.10;;;;;;4936162;29;20423;-54
2023/12/26 08:48:22;;;;;;;33.35;29.45;;;31.40;68.90;;;;;;4933844;29;20034;-53
2023/12/26 08:50:49;;;;;;;34.05;29.00;;;31.20;68.60;;;;;;4919524;29;20376;-55
2023/12/26 08:53:15;;;;;;;39.90;32.13;;;;;;;;;;4952196;29;20028;-54
2023/12/26 08:55:45;;;;;;;74.20;50.28;;;31.70;94.60;;;;;;4951047;29;20507;-52
2023/12/26 08:58:11;;;;;;;49.05;35.40;;;31.90;68.40;;;;;;4950665;29;20101;-53
2023/12/26 09:00:41;;;;;;;32.67;29.15;;;31.50;68.70;;;;;;4935041;29;20046;-53
2023/12/26 09:03:07;;;;;;;31.83;26.80;;;31.60;68.70;;;;;;4935086;29;20047;-53
2023/12/26 09:05:34;;;;;;;27.90;24.90;;;31.80;68.60;;;;;;4934379;29;20440;-54
2023/12/26 09:08:01;;;;;;;32.63;21.92;;;31.60;72.20;;;;;;4934152;29;20613;-54
2023/12/26 09:10:27;;;;;;;23.90;21.00;;;31.60;71.80;;;;;;4951441;29;20082;-54
2023/12/26 09:12:53;;;;;;;25.15;20.60;;;32.10;69.10;;;;;;4934626;29;20130;-55
2023/12/26 09:15:19;;;;;;;25.23;17.45;;;31.20;68.70;;;;;;4931776;29;20115;-56
2023/12/26 09:17:45;;;;;;;18.00;16.05;;;31.10;69.10;;;;;;4915477;29;20040;-55
2023/12/26 09:20:11;;;;;;;20.60;16.95;;;32.20;69.30;;;;;;4931552;29;20039;-55
2023/12/26 09:22:37;;;;;;;21.85;16.88;;;30.80;68.40;;;;;;4931816;29;20031;-54
2023/12/26 09:25:02;;;;;;;22.77;16.85;;;29.80;69.70;;;;;;4931700;29;20179;-54
2023/12/26 09:27:28;;;;;;;23.38;20.85;;;;;;;;;;4916295;29;20043;-52
2023/12/26 09:29:55;;;;;;;28.25;22.50;;;;;;;;;;4931838;29;20058;-51
2023/12/26 09:32:20;;;;;;;23.35;20.85;;;33.20;78.70;;;;;;4899680;29;20377;-52
2023/12/26 09:34:46;;;;;;;25.75;20.23;;;33.30;67.90;;;;;;4934232;29;20090;-53
2023/12/26 09:37:12;;;;;;;23.45;19.88;;;32.60;67.70;;;;;;4935381;29;20240;-52
2023/12/26 09:39:38;;;;;;;28.70;21.73;;;32.00;67.60;;;;;;4935204;29;20039;-55
2023/12/26 09:42:05;;;;;;;29.08;21.02;;;31.80;68.50;;;;;;4935428;29;20035;-56
2023/12/26 09:44:31;;;;;;;31.27;22.30;;;32.20;68.00;;;;;;4935397;29;20107;-52
2023/12/26 09:46:58;;;;;;;32.85;24.65;;;31.60;67.80;;;;;;4951156;29;20043;-54
2023/12/26 09:49:24;;;;;;;26.00;23.30;;;31.70;68.50;;;;;;4923177;29;20130;-54
2023/12/26 09:51:52;;;;;;;27.63;24.50;;;30.90;68.10;;;;;;4957043;29;20159;-55
2023/12/26 09:54:18;;;;;;;33.08;23.85;;;;;;;;;;4956798;29;20090;-54
2023/12/26 09:56:45;;;;;;;29.00;24.48;;;29.00;68.90;;;;;;4955067;29;20031;-56
2023/12/26 09:59:14;;;;;;;37.30;28.10;;;28.90;70.00;;;;;;4922782;29;20043;-53
2023/12/26 10:01:43;;;;;;;52.85;30.02;;;29.20;70.00;;;;;;4938226;29;20636;-53
2023/12/26 10:04:09;;;;;;;61.95;29.08;;;29.40;70.10;;;;;;4956466;29;20030;-56
2023/12/26 10:06:34;;;;;;;29.50;25.95;;;30.10;70.20;;;;;;4922698;29;20035;-55
2023/12/26 10:09:00;;;;;;;31.25;26.00;;;30.60;69.80;;;;;;4922296;29;20118;-52
2023/12/26 10:11:27;;;;;;;32.28;27.58;;;29.20;69.20;;;;;;4956242;29;20064;-53
2023/12/26 10:13:54;;;;;;;33.10;29.55;;;29.90;70.20;;;;;;4953505;29;20047;-52
2023/12/26 10:16:20;;;;;;;32.05;27.65;;;30.40;70.00;;;;;;4922710;29;20038;-53
2023/12/26 10:18:46;;;;;;;32.20;27.65;;;30.70;69.70;;;;;;4956102;29;20031;-53
2023/12/26 10:21:13;;;;;;;36.30;28.92;;;30.80;69.80;;;;;;4956162;29;20019;-55
2023/12/26 10:23:39;;;;;;;32.88;26.80;;;30.90;69.70;;;;;;4956025;29;20019;-52
2023/12/26 10:26:05;;;;;;;38.50;29.20;;;30.80;69.60;;;;;;4955462;29;20078;-54
2023/12/26 10:28:41;;;;;;;34.00;26.38;;;30.10;69.60;;;;;;4921039;29;20059;-55
2023/12/26 10:31:15;;;;;;;32.50;26.42;;;30.60;69.80;;;;;;4955544;29;20071;-54
2023/12/26 10:33:41;;;;;;;30.92;27.35;;;30.70;70.10;;;;;;4955826;29;20063;-56
2023/12/26 10:36:10;;;;;;;36.88;28.95;;;30.30;70.10;;;;;;4955923;29;20118;-54
2023/12/26 10:38:37;;;;;;;35.65;28.52;;;30.20;70.40;;;;;;4956213;29;20368;-53
2023/12/26 10:41:08;;;;;;;35.53;27.83;;;30.20;71.10;;;;;;4954160;29;20035;-52
2023/12/26 10:43:39;;;;;;;33.92;28.33;;;29.80;70.50;;;;;;4956371;28;20031;-50
2023/12/26 10:46:07;;;;;;;31.38;27.60;;;29.80;70.70;;;;;;4954612;29;20590;-55
2023/12/26 10:48:33;;;;;;;40.90;31.92;;;;;;;;;;4953674;29;20051;-53
2023/12/26 10:51:00;;;;;;;44.80;35.55;;;;;;;;;;4955626;29;20031;-55
2023/12/26 10:53:52;;;;;;;44.83;35.83;;;28.80;72.10;;;;;;4955520;29;20042;-54
2023/12/26 10:56:18;;;;;;;;;;;29.70;72.20;;;;;;4956581;29;20035;-51
2023/12/26 10:58:44;;;;;;;52.67;42.78;;;;;;;;;;4955006;29;19910;-53
2023/12/26 13:51:56;;;;;;;26.83;15.10;;;19.20;98.10;;;;;;4934408;29;20107;-50
2023/12/26 13:54:41;;;;;;;23.05;13.80;;;;;;;;;;4934283;29;20094;-48
2023/12/26 13:57:44;;;;;;;22.92;16.20;;;19.60;96.00;;;;;;4933987;29;20076;-49
2023/12/26 14:00:47;;;;;;;30.27;19.33;;;19.40;96.20;;;;;;4947971;29;20086;-49
2023/12/26 14:03:50;;;;;;;25.65;18.10;;;19.10;96.70;;;;;;4933880;29;20568;-50
2023/12/26 14:06:53;;;;;;;34.28;22.70;;;19.10;96.90;;;;;;4934036;29;20028;-48
2023/12/26 14:09:56;;;;;;;38.90;22.85;;;19.30;96.80;;;;;;4947777;29;20130;-47
2023/12/26 14:12:59;;;;;;;37.58;24.65;;;19.30;96.60;;;;;;4933915;29;20036;-50
2023/12/26 14:16:02;;;;;;;45.03;28.35;;;19.40;96.80;;;;;;4947572;29;20483;-52
2023/12/26 14:18:47;;;;;;;36.47;24.02;;;;;;;;;;4934068;29;20044;-48
2023/12/26 14:21:32;;;;;;;43.72;27.15;;;;;;;;;;4937417;29;20078;-50
2023/12/26 14:24:35;;;;;;;44.88;27.15;;;19.20;97.40;;;;;;4937518;29;20079;-50
2023/12/26 14:27:38;;;;;;;63.70;31.60;;;19.10;97.70;;;;;;4951189;29;20122;-51
2023/12/26 14:30:41;;;;;;;59.55;28.80;;;19.00;97.40;;;;;;4937258;29;20046;-49
2023/12/26 14:33:44;;;;;;;52.90;28.65;;;18.80;98.70;;;;;;4936927;29;20040;-48
2023/12/26 14:36:47;;;;;;;47.08;29.27;;;18.90;91.80;;;;;;4950975;29;20036;-48
2023/12/26 14:39:31;;;;;;;39.95;29.33;;;;;;;;;;4937474;29;20038;-49
2023/12/26 14:42:16;;;;;;;41.20;28.58;;;;;;;;;;4936877;29;20035;-50
2023/12/26 14:45:19;;;;;;;58.90;32.40;;;18.30;91.90;;;;;;4937340;29;20048;-51
2023/12/26 14:48:22;;;;;;;61.03;32.67;;;18.10;92.30;;;;;;4936957;29;20050;-48
2023/12/26 14:51:06;;;;;;;54.78;28.58;;;;;;;;;;4936821;29;20036;-50
2023/12/26 14:53:51;;;;;;;106.43;50.10;;;;;;;;;;4936726;29;20040;-49
2023/12/26 14:56:54;;;;;;;133.48;55.75;;;17.60;98.40;;;;;;4950621;29;20038;-49
2023/12/26 14:59:57;;;;;;;92.55;43.63;;;17.70;92.30;;;;;;4936905;29;20039;-49
2023/12/26 15:26:13;;;;;;;103.88;67.43;;;;;;;;;;5119562;23;20915;-53
2023/12/26 15:28:41;;;;;;;100.82;64.57;;;15.60;99.90;;;;;;4953090;29;20044;-52
2023/12/26 15:31:11;;;;;;;115.32;75.03;;;;;;;;;;4954548;28;20050;-53
2023/12/26 15:33:39;;;;;;;116.30;76.15;;;;;;;;;;4953200;28;20031;-57
2023/12/26 15:36:06;;;;;;;101.85;67.70;;;15.10;99.90;;;;;;4953291;28;20035;-50
2023/12/26 15:38:32;;;;;;;79.07;54.60;;;14.70;99.90;;;;;;4920861;29;20028;-52
2023/12/26 15:40:58;;;;;;;75.30;50.10;;;14.60;99.90;;;;;;4953421;29;20034;-50
2023/12/26 15:43:24;;;;;;;64.85;41.95;;;14.60;99.90;;;;;;4921037;29;20114;-51
2023/12/26 15:45:50;;;;;;;78.32;54.38;;;14.50;99.90;;;;;;4954953;29;20034;-49
2023/12/26 15:48:15;;;;;;;60.88;43.40;;;14.40;99.90;;;;;;4955043;29;20081;-50
2023/12/26 15:50:41;;;;;;;72.97;48.30;;;;;;;;;;4927281;29;20099;-51
2023/12/26 15:53:07;;;;;;;69.60;46.58;;;14.10;99.90;;;;;;4949851;29;20042;-54
2023/12/26 15:55:34;;;;;;;69.93;47.97;;;14.00;99.90;;;;;;4953557;29;20015;-51
2023/12/26 15:58:00;;;;;;;70.60;51.08;;;13.90;99.90;;;;;;4954376;29;20042;-53
2023/12/26 16:00:25;;;;;;;86.97;59.33;;;14.00;99.90;;;;;;4954489;29;20023;-50
2023/12/26 16:02:51;;;;;;;90.75;61.70;;;14.00;99.90;;;;;;4954298;29;20061;-52
2023/12/26 16:05:17;;;;;;;87.13;60.13;;;14.10;99.90;;;;;;4954776;29;20050;-52
2023/12/26 16:07:43;;;;;;;92.68;62.45;;;14.10;99.90;;;;;;4954650;29;20028;-52
2023/12/26 16:10:09;;;;;;;86.63;62.78;;;14.20;99.90;;;;;;4954322;29;20036;-51
2023/12/26 16:12:35;;;;;;;146.70;88.45;;;14.30;99.90;;;;;;4954567;29;20046;-52
2023/12/26 16:15:01;;;;;;;156.93;110.93;;;14.40;99.90;;;;;;4920593;29;20514;-52
2023/12/26 16:17:27;;;;;;;146.90;92.35;;;14.50;99.90;;;;;;4888869;29;20117;-51